sensor_id;sensor_type;location;lat;lon;timestamp;P1;durP1;ratioP1;P2;durP2;ratioP2
5939;SDS011;2995;-31.998;115.906;2023-07-09T00:00:25;2.07;;;1.60;;
5939;SDS011;2995;-31.998;115.906;2023-07-09T00:02:56;3.73;;;1.60;;
5939;SDS011;2995;-31.998;115.906;2023-07-09T00:05:27;4.43;;;1.27;;
5939;SDS011;2995;-31.998;115.906;2023-07-09T00:07:58;2.20;;;1.50;;
5939;SDS011;2995;-31.998;115.906;2023-07-09T00:10:30;1.70;;;1.27;;
5939;SDS011;2995;-31.998;115.906;2023-07-09T00:13:03;2.10;;;1.40;;
5939;SDS011;2995;-31.998;115.906;2023-07-09T00:15:34;1.30;;;1.20;;
5939;SDS011;2995;-31.998;115.906;2023-07-09T00:18:07;2.60;;;1.70;;
5939;SDS011;2995;-31.998;115.906;2023-07-09T00:20:38;2.23;;;1.40;;
5939;SDS011;2995;-31.998;115.906;2023-07-09T00:23:10;3.97;;;1.40;;
5939;SDS011;2995;-31.998;115.906;2023-07-09T00:25:42;1.80;;;1.47;;
5939;SDS011;2995;-31.998;115.906;2023-07-09T00:28:17;4.20;;;1.30;;
5939;SDS011;2995;-31.998;115.906;2023-07-09T00:30:48;3.17;;;1.47;;
5939;SDS011;2995;-31.998;115.906;2023-07-09T00:33:19;1.57;;;1.20;;
5939;SDS011;2995;-31.998;115.906;2023-07-09T00:35:54;3.00;;;1.33;;
5939;SDS011;2995;-31.998;115.906;2023-07-09T00:38:26;1.50;;;1.27;;
5939;SDS011;2995;-31.998;115.906;2023-07-09T00:41:05;1.43;;;1.27;;
5939;SDS011;2995;-31.998;115.906;2023-07-09T00:43:45;2.33;;;1.20;;
5939;SDS011;2995;-31.998;115.906;2023-07-09T00:47:18;1.67;;;1.20;;
5939;SDS011;2995;-31.998;115.906;2023-07-09T00:49:28;1.30;;;1.20;;
5939;SDS011;2995;-31.998;115.906;2023-07-09T00:52:02;2.30;;;1.60;;
5939;SDS011;2995;-31.998;115.906;2023-07-09T00:54:41;1.47;;;1.10;;
5939;SDS011;2995;-31.998;115.906;2023-07-09T00:57:14;1.60;;;1.50;;
5939;SDS011;2995;-31.998;115.906;2023-07-09T00:59:50;1.30;;;1.20;;
5939;SDS011;2995;-31.998;115.906;2023-07-09T01:02:26;2.67;;;1.60;;
5939;SDS011;2995;-31.998;115.906;2023-07-09T01:04:58;1.70;;;1.33;;
5939;SDS011;2995;-31.998;115.906;2023-07-09T01:07:32;1.37;;;1.27;;
5939;SDS011;2995;-31.998;115.906;2023-07-09T01:10:04;1.80;;;1.30;;
5939;SDS011;2995;-31.998;115.906;2023-07-09T01:12:35;1.63;;;1.30;;
5939;SDS011;2995;-31.998;115.906;2023-07-09T01:15:10;1.60;;;1.27;;
5939;SDS011;2995;-31.998;115.906;2023-07-09T01:17:43;1.30;;;1.10;;
5939;SDS011;2995;-31.998;115.906;2023-07-09T01:20:20;5.23;;;1.00;;
5939;SDS011;2995;-31.998;115.906;2023-07-09T01:22:56;3.80;;;1.50;;
5939;SDS011;2995;-31.998;115.906;2023-07-09T01:25:30;3.43;;;1.20;;
5939;SDS011;2995;-31.998;115.906;2023-07-09T01:28:04;1.03;;;0.93;;
5939;SDS011;2995;-31.998;115.906;2023-07-09T01:30:38;2.00;;;1.00;;
5939;SDS011;2995;-31.998;115.906;2023-07-09T01:33:12;2.03;;;1.40;;
5939;SDS011;2995;-31.998;115.906;2023-07-09T01:35:48;1.30;;;1.20;;
5939;SDS011;2995;-31.998;115.906;2023-07-09T01:38:28;2.20;;;1.40;;
5939;SDS011;2995;-31.998;115.906;2023-07-09T01:41:00;2.40;;;1.20;;
5939;SDS011;2995;-31.998;115.906;2023-07-09T01:43:31;1.30;;;1.20;;
5939;SDS011;2995;-31.998;115.906;2023-07-09T01:46:03;1.70;;;1.40;;
5939;SDS011;2995;-31.998;115.906;2023-07-09T01:48:34;1.07;;;0.97;;
5939;SDS011;2995;-31.998;115.906;2023-07-09T01:51:07;2.50;;;1.33;;
5939;SDS011;2995;-31.998;115.906;2023-07-09T01:53:41;1.53;;;1.10;;
5939;SDS011;2995;-31.998;115.906;2023-07-09T01:56:13;2.47;;;1.30;;
5939;SDS011;2995;-31.998;115.906;2023-07-09T01:58:44;2.83;;;1.20;;
5939;SDS011;2995;-31.998;115.906;2023-07-09T02:01:18;2.67;;;1.20;;
5939;SDS011;2995;-31.998;115.906;2023-07-09T02:03:52;1.63;;;1.27;;
5939;SDS011;2995;-31.998;115.906;2023-07-09T02:06:23;1.13;;;1.03;;
5939;SDS011;2995;-31.998;115.906;2023-07-09T02:09:00;3.93;;;1.83;;
5939;SDS011;2995;-31.998;115.906;2023-07-09T02:11:31;4.87;;;2.40;;
5939;SDS011;2995;-31.998;115.906;2023-07-09T02:14:02;3.13;;;1.90;;
5939;SDS011;2995;-31.998;115.906;2023-07-09T02:16:34;2.30;;;1.40;;
5939;SDS011;2995;-31.998;115.906;2023-07-09T02:19:08;2.80;;;1.70;;
5939;SDS011;2995;-31.998;115.906;2023-07-09T02:21:39;1.60;;;1.37;;
5939;SDS011;2995;-31.998;115.906;2023-07-09T02:24:12;2.20;;;1.43;;
5939;SDS011;2995;-31.998;115.906;2023-07-09T02:26:44;1.77;;;1.57;;
5939;SDS011;2995;-31.998;115.906;2023-07-09T02:29:15;2.50;;;1.50;;
5939;SDS011;2995;-31.998;115.906;2023-07-09T02:31:47;2.10;;;1.53;;
5939;SDS011;2995;-31.998;115.906;2023-07-09T02:34:20;1.93;;;1.60;;
5939;SDS011;2995;-31.998;115.906;2023-07-09T02:36:52;2.30;;;1.40;;
5939;SDS011;2995;-31.998;115.906;2023-07-09T02:39:25;2.10;;;1.40;;
5939;SDS011;2995;-31.998;115.906;2023-07-09T02:41:57;1.90;;;1.23;;
5939;SDS011;2995;-31.998;115.906;2023-07-09T02:44:28;2.40;;;1.43;;
5939;SDS011;2995;-31.998;115.906;2023-07-09T02:47:00;2.70;;;1.20;;
5939;SDS011;2995;-31.998;115.906;2023-07-09T02:49:31;1.80;;;1.30;;
5939;SDS011;2995;-31.998;115.906;2023-07-09T02:52:02;2.90;;;1.60;;
5939;SDS011;2995;-31.998;115.906;2023-07-09T02:54:36;3.10;;;1.10;;
5939;SDS011;2995;-31.998;115.906;2023-07-09T02:57:08;4.13;;;1.30;;
5939;SDS011;2995;-31.998;115.906;2023-07-09T02:59:39;2.07;;;1.30;;
5939;SDS011;2995;-31.998;115.906;2023-07-09T03:02:10;1.30;;;1.20;;
5939;SDS011;2995;-31.998;115.906;2023-07-09T03:04:42;1.93;;;1.10;;
5939;SDS011;2995;-31.998;115.906;2023-07-09T03:07:13;5.30;;;1.47;;
5939;SDS011;2995;-31.998;115.906;2023-07-09T03:09:50;1.30;;;1.20;;
5939;SDS011;2995;-31.998;115.906;2023-07-09T03:12:22;2.10;;;1.33;;
5939;SDS011;2995;-31.998;115.906;2023-07-09T03:14:53;2.33;;;1.30;;
5939;SDS011;2995;-31.998;115.906;2023-07-09T03:17:25;1.30;;;1.20;;
5939;SDS011;2995;-31.998;115.906;2023-07-09T03:19:59;2.57;;;1.17;;
5939;SDS011;2995;-31.998;115.906;2023-07-09T03:22:34;3.00;;;1.43;;
5939;SDS011;2995;-31.998;115.906;2023-07-09T03:25:10;1.50;;;1.20;;
5939;SDS011;2995;-31.998;115.906;2023-07-09T03:27:46;2.03;;;1.30;;
5939;SDS011;2995;-31.998;115.906;2023-07-09T03:30:20;2.07;;;1.30;;
5939;SDS011;2995;-31.998;115.906;2023-07-09T03:32:54;2.93;;;1.40;;
5939;SDS011;2995;-31.998;115.906;2023-07-09T03:35:27;2.93;;;1.10;;
5939;SDS011;2995;-31.998;115.906;2023-07-09T03:38:01;2.60;;;1.20;;
5939;SDS011;2995;-31.998;115.906;2023-07-09T03:40:34;4.23;;;1.83;;
5939;SDS011;2995;-31.998;115.906;2023-07-09T03:43:06;2.70;;;1.27;;
5939;SDS011;2995;-31.998;115.906;2023-07-09T03:45:39;1.83;;;1.00;;
5939;SDS011;2995;-31.998;115.906;2023-07-09T03:48:15;2.43;;;1.07;;
5939;SDS011;2995;-31.998;115.906;2023-07-09T03:50:49;1.70;;;1.13;;
5939;SDS011;2995;-31.998;115.906;2023-07-09T03:53:20;3.70;;;1.40;;
5939;SDS011;2995;-31.998;115.906;2023-07-09T03:55:56;1.70;;;1.20;;
5939;SDS011;2995;-31.998;115.906;2023-07-09T03:58:28;1.50;;;1.30;;
5939;SDS011;2995;-31.998;115.906;2023-07-09T04:01:00;3.30;;;1.20;;
5939;SDS011;2995;-31.998;115.906;2023-07-09T04:03:32;3.10;;;1.13;;
5939;SDS011;2995;-31.998;115.906;2023-07-09T04:06:03;2.80;;;1.50;;
5939;SDS011;2995;-31.998;115.906;2023-07-09T04:08:35;9.93;;;1.20;;
5939;SDS011;2995;-31.998;115.906;2023-07-09T04:11:10;6.80;;;2.50;;
5939;SDS011;2995;-31.998;115.906;2023-07-09T04:13:41;13.73;;;4.73;;
5939;SDS011;2995;-31.998;115.906;2023-07-09T04:16:12;3.13;;;1.50;;
5939;SDS011;2995;-31.998;115.906;2023-07-09T04:18:44;3.10;;;2.30;;
5939;SDS011;2995;-31.998;115.906;2023-07-09T04:21:17;3.97;;;2.20;;
5939;SDS011;2995;-31.998;115.906;2023-07-09T04:23:51;7.70;;;4.50;;
5939;SDS011;2995;-31.998;115.906;2023-07-09T04:26:27;25.23;;;17.57;;
5939;SDS011;2995;-31.998;115.906;2023-07-09T04:29:00;20.27;;;8.80;;
5939;SDS011;2995;-31.998;115.906;2023-07-09T04:31:34;8.23;;;5.00;;
5939;SDS011;2995;-31.998;115.906;2023-07-09T04:34:08;7.13;;;2.80;;
5939;SDS011;2995;-31.998;115.906;2023-07-09T04:36:40;16.50;;;8.00;;
5939;SDS011;2995;-31.998;115.906;2023-07-09T04:39:12;25.10;;;12.00;;
5939;SDS011;2995;-31.998;115.906;2023-07-09T04:41:46;4.37;;;2.60;;
5939;SDS011;2995;-31.998;115.906;2023-07-09T04:44:18;18.80;;;3.70;;
5939;SDS011;2995;-31.998;115.906;2023-07-09T04:46:49;8.60;;;4.00;;
5939;SDS011;2995;-31.998;115.906;2023-07-09T04:49:20;30.93;;;16.33;;
5939;SDS011;2995;-31.998;115.906;2023-07-09T04:51:51;26.30;;;15.00;;
5939;SDS011;2995;-31.998;115.906;2023-07-09T04:54:23;25.80;;;16.10;;
5939;SDS011;2995;-31.998;115.906;2023-07-09T04:56:56;5.03;;;3.60;;
5939;SDS011;2995;-31.998;115.906;2023-07-09T04:59:28;1.67;;;0.80;;
5939;SDS011;2995;-31.998;115.906;2023-07-09T05:02:00;3.20;;;1.30;;
5939;SDS011;2995;-31.998;115.906;2023-07-09T05:04:32;2.57;;;0.90;;
5939;SDS011;2995;-31.998;115.906;2023-07-09T05:07:03;4.23;;;1.23;;
5939;SDS011;2995;-31.998;115.906;2023-07-09T05:09:35;3.57;;;1.17;;
5939;SDS011;2995;-31.998;115.906;2023-07-09T05:12:09;1.77;;;1.10;;
5939;SDS011;2995;-31.998;115.906;2023-07-09T05:14:40;2.27;;;1.00;;
5939;SDS011;2995;-31.998;115.906;2023-07-09T05:17:11;3.13;;;1.10;;
5939;SDS011;2995;-31.998;115.906;2023-07-09T05:19:43;2.00;;;1.23;;
5939;SDS011;2995;-31.998;115.906;2023-07-09T05:22:14;4.20;;;1.10;;
5939;SDS011;2995;-31.998;115.906;2023-07-09T05:24:45;3.60;;;1.20;;
5939;SDS011;2995;-31.998;115.906;2023-07-09T05:27:19;2.07;;;0.90;;
5939;SDS011;2995;-31.998;115.906;2023-07-09T05:29:50;2.60;;;1.13;;
5939;SDS011;2995;-31.998;115.906;2023-07-09T05:32:21;1.80;;;0.87;;
5939;SDS011;2995;-31.998;115.906;2023-07-09T05:34:52;1.70;;;1.17;;
5939;SDS011;2995;-31.998;115.906;2023-07-09T05:37:24;1.03;;;0.80;;
5939;SDS011;2995;-31.998;115.906;2023-07-09T05:39:55;1.77;;;1.00;;
5939;SDS011;2995;-31.998;115.906;2023-07-09T05:42:28;2.50;;;0.80;;
5939;SDS011;2995;-31.998;115.906;2023-07-09T05:45:00;1.93;;;1.00;;
5939;SDS011;2995;-31.998;115.906;2023-07-09T05:47:31;2.90;;;1.10;;
5939;SDS011;2995;-31.998;115.906;2023-07-09T05:50:02;1.43;;;0.90;;
5939;SDS011;2995;-31.998;115.906;2023-07-09T05:52:34;1.07;;;0.90;;
5939;SDS011;2995;-31.998;115.906;2023-07-09T05:55:06;1.57;;;0.80;;
5939;SDS011;2995;-31.998;115.906;2023-07-09T05:57:40;2.40;;;0.90;;
5939;SDS011;2995;-31.998;115.906;2023-07-09T06:00:11;2.43;;;0.87;;
5939;SDS011;2995;-31.998;115.906;2023-07-09T06:02:43;1.20;;;1.00;;
5939;SDS011;2995;-31.998;115.906;2023-07-09T06:05:14;4.97;;;1.40;;
5939;SDS011;2995;-31.998;115.906;2023-07-09T06:07:46;1.37;;;0.83;;
5939;SDS011;2995;-31.998;115.906;2023-07-09T06:10:18;3.00;;;0.90;;
5939;SDS011;2995;-31.998;115.906;2023-07-09T06:12:51;2.40;;;0.90;;
5939;SDS011;2995;-31.998;115.906;2023-07-09T06:15:24;2.77;;;1.00;;
5939;SDS011;2995;-31.998;115.906;2023-07-09T06:17:56;2.77;;;1.10;;
5939;SDS011;2995;-31.998;115.906;2023-07-09T06:20:27;1.53;;;0.90;;
5939;SDS011;2995;-31.998;115.906;2023-07-09T06:22:58;2.80;;;1.00;;
5939;SDS011;2995;-31.998;115.906;2023-07-09T06:25:30;1.47;;;0.80;;
5939;SDS011;2995;-31.998;115.906;2023-07-09T06:28:03;2.37;;;1.23;;
5939;SDS011;2995;-31.998;115.906;2023-07-09T06:30:35;3.70;;;1.20;;
5939;SDS011;2995;-31.998;115.906;2023-07-09T06:33:06;4.70;;;1.20;;
5939;SDS011;2995;-31.998;115.906;2023-07-09T06:35:38;3.63;;;1.03;;
5939;SDS011;2995;-31.998;115.906;2023-07-09T06:38:15;2.80;;;1.00;;
5939;SDS011;2995;-31.998;115.906;2023-07-09T06:40:46;2.80;;;1.00;;
5939;SDS011;2995;-31.998;115.906;2023-07-09T06:43:20;1.20;;;1.00;;
5939;SDS011;2995;-31.998;115.906;2023-07-09T06:45:51;1.90;;;1.20;;
5939;SDS011;2995;-31.998;115.906;2023-07-09T06:48:24;1.27;;;0.90;;
5939;SDS011;2995;-31.998;115.906;2023-07-09T06:50:57;6.37;;;1.07;;
5939;SDS011;2995;-31.998;115.906;2023-07-09T06:53:28;5.50;;;1.00;;
5939;SDS011;2995;-31.998;115.906;2023-07-09T06:56:00;3.37;;;1.03;;
5939;SDS011;2995;-31.998;115.906;2023-07-09T06:58:35;1.10;;;0.90;;
5939;SDS011;2995;-31.998;115.906;2023-07-09T07:01:07;2.90;;;0.80;;
5939;SDS011;2995;-31.998;115.906;2023-07-09T07:03:39;1.80;;;0.80;;
5939;SDS011;2995;-31.998;115.906;2023-07-09T07:06:10;2.87;;;0.80;;
5939;SDS011;2995;-31.998;115.906;2023-07-09T07:08:42;2.60;;;1.10;;
5939;SDS011;2995;-31.998;115.906;2023-07-09T07:11:13;2.93;;;0.80;;
5939;SDS011;2995;-31.998;115.906;2023-07-09T07:13:47;2.80;;;0.93;;
5939;SDS011;2995;-31.998;115.906;2023-07-09T07:16:18;5.20;;;0.90;;
5939;SDS011;2995;-31.998;115.906;2023-07-09T07:18:50;2.40;;;0.80;;
5939;SDS011;2995;-31.998;115.906;2023-07-09T07:21:21;2.40;;;0.90;;
5939;SDS011;2995;-31.998;115.906;2023-07-09T07:23:52;3.50;;;0.90;;
5939;SDS011;2995;-31.998;115.906;2023-07-09T07:26:23;1.00;;;0.70;;
5939;SDS011;2995;-31.998;115.906;2023-07-09T07:28:57;1.43;;;0.83;;
5939;SDS011;2995;-31.998;115.906;2023-07-09T07:31:28;3.63;;;0.80;;
5939;SDS011;2995;-31.998;115.906;2023-07-09T07:33:59;2.13;;;0.80;;
5939;SDS011;2995;-31.998;115.906;2023-07-09T07:36:30;3.47;;;1.10;;
5939;SDS011;2995;-31.998;115.906;2023-07-09T07:39:02;2.70;;;1.00;;
5939;SDS011;2995;-31.998;115.906;2023-07-09T07:41:33;3.50;;;0.80;;
5939;SDS011;2995;-31.998;115.906;2023-07-09T07:44:06;2.80;;;1.00;;
5939;SDS011;2995;-31.998;115.906;2023-07-09T07:46:38;2.50;;;0.90;;
5939;SDS011;2995;-31.998;115.906;2023-07-09T07:49:09;2.30;;;0.80;;
5939;SDS011;2995;-31.998;115.906;2023-07-09T07:51:40;3.67;;;0.90;;
5939;SDS011;2995;-31.998;115.906;2023-07-09T07:54:11;3.77;;;1.00;;
5939;SDS011;2995;-31.998;115.906;2023-07-09T07:56:44;2.60;;;1.40;;
5939;SDS011;2995;-31.998;115.906;2023-07-09T07:59:19;2.30;;;1.20;;
5939;SDS011;2995;-31.998;115.906;2023-07-09T08:01:50;4.50;;;1.10;;
5939;SDS011;2995;-31.998;115.906;2023-07-09T08:04:21;3.33;;;0.80;;
5939;SDS011;2995;-31.998;115.906;2023-07-09T08:06:53;1.50;;;1.00;;
5939;SDS011;2995;-31.998;115.906;2023-07-09T08:09:25;3.80;;;1.10;;
5939;SDS011;2995;-31.998;115.906;2023-07-09T08:11:56;3.07;;;1.40;;
5939;SDS011;2995;-31.998;115.906;2023-07-09T08:14:29;1.67;;;1.00;;
5939;SDS011;2995;-31.998;115.906;2023-07-09T08:17:00;6.60;;;1.10;;
5939;SDS011;2995;-31.998;115.906;2023-07-09T08:19:32;2.93;;;1.23;;
5939;SDS011;2995;-31.998;115.906;2023-07-09T08:22:13;5.43;;;1.33;;
5939;SDS011;2995;-31.998;115.906;2023-07-09T08:24:46;1.30;;;1.00;;
5939;SDS011;2995;-31.998;115.906;2023-07-09T08:27:18;3.60;;;1.40;;
5939;SDS011;2995;-31.998;115.906;2023-07-09T08:29:51;2.90;;;1.10;;
5939;SDS011;2995;-31.998;115.906;2023-07-09T08:32:22;7.03;;;1.23;;
5939;SDS011;2995;-31.998;115.906;2023-07-09T08:34:55;4.33;;;1.60;;
5939;SDS011;2995;-31.998;115.906;2023-07-09T08:37:26;1.30;;;0.80;;
5939;SDS011;2995;-31.998;115.906;2023-07-09T08:39:57;4.50;;;1.00;;
5939;SDS011;2995;-31.998;115.906;2023-07-09T08:42:29;5.87;;;2.27;;
5939;SDS011;2995;-31.998;115.906;2023-07-09T08:45:13;1.30;;;0.83;;
5939;SDS011;2995;-31.998;115.906;2023-07-09T08:47:56;2.40;;;0.80;;
5939;SDS011;2995;-31.998;115.906;2023-07-09T08:50:35;2.13;;;1.50;;
5939;SDS011;2995;-31.998;115.906;2023-07-09T08:53:09;2.80;;;1.20;;
5939;SDS011;2995;-31.998;115.906;2023-07-09T08:55:48;2.03;;;0.90;;
5939;SDS011;2995;-31.998;115.906;2023-07-09T08:58:21;3.33;;;0.90;;
5939;SDS011;2995;-31.998;115.906;2023-07-09T09:00:57;3.00;;;1.57;;
5939;SDS011;2995;-31.998;115.906;2023-07-09T09:03:34;1.20;;;0.90;;
5939;SDS011;2995;-31.998;115.906;2023-07-09T09:06:11;3.63;;;2.10;;
5939;SDS011;2995;-31.998;115.906;2023-07-09T09:08:46;3.10;;;1.50;;
5939;SDS011;2995;-31.998;115.906;2023-07-09T09:11:30;4.37;;;2.17;;
5939;SDS011;2995;-31.998;115.906;2023-07-09T09:14:13;5.17;;;2.10;;
5939;SDS011;2995;-31.998;115.906;2023-07-09T09:16:57;5.20;;;2.00;;
5939;SDS011;2995;-31.998;115.906;2023-07-09T09:19:31;7.90;;;7.20;;
5939;SDS011;2995;-31.998;115.906;2023-07-09T09:22:05;81.40;;;73.07;;
5939;SDS011;2995;-31.998;115.906;2023-07-09T09:24:43;29.10;;;26.60;;
5939;SDS011;2995;-31.998;115.906;2023-07-09T09:27:24;35.37;;;31.73;;
5939;SDS011;2995;-31.998;115.906;2023-07-09T09:29:55;129.60;;;96.27;;
5939;SDS011;2995;-31.998;115.906;2023-07-09T09:32:29;361.63;;;287.40;;
5939;SDS011;2995;-31.998;115.906;2023-07-09T09:35:11;204.53;;;123.40;;
5939;SDS011;2995;-31.998;115.906;2023-07-09T09:37:44;705.47;;;453.70;;
5939;SDS011;2995;-31.998;115.906;2023-07-09T09:40:21;548.10;;;349.53;;
5939;SDS011;2995;-31.998;115.906;2023-07-09T09:42:55;349.90;;;206.10;;
5939;SDS011;2995;-31.998;115.906;2023-07-09T09:45:28;90.63;;;51.53;;
5939;SDS011;2995;-31.998;115.906;2023-07-09T09:48:09;58.37;;;33.77;;
5939;SDS011;2995;-31.998;115.906;2023-07-09T09:50:44;34.57;;;20.07;;
5939;SDS011;2995;-31.998;115.906;2023-07-09T09:53:20;39.60;;;22.13;;
5939;SDS011;2995;-31.998;115.906;2023-07-09T09:55:53;80.93;;;38.70;;
5939;SDS011;2995;-31.998;115.906;2023-07-09T09:58:27;33.20;;;17.07;;
5939;SDS011;2995;-31.998;115.906;2023-07-09T10:00:59;47.40;;;24.37;;
5939;SDS011;2995;-31.998;115.906;2023-07-09T10:03:35;51.30;;;25.93;;
5939;SDS011;2995;-31.998;115.906;2023-07-09T10:06:08;88.77;;;50.77;;
5939;SDS011;2995;-31.998;115.906;2023-07-09T10:08:46;113.23;;;63.00;;
5939;SDS011;2995;-31.998;115.906;2023-07-09T10:11:26;59.17;;;36.83;;
5939;SDS011;2995;-31.998;115.906;2023-07-09T10:14:09;193.53;;;113.57;;
5939;SDS011;2995;-31.998;115.906;2023-07-09T10:16:57;229.97;;;136.77;;
5939;SDS011;2995;-31.998;115.906;2023-07-09T10:19:38;64.20;;;40.10;;
5939;SDS011;2995;-31.998;115.906;2023-07-09T10:22:18;102.43;;;86.07;;
5939;SDS011;2995;-31.998;115.906;2023-07-09T10:24:57;52.23;;;41.63;;
5939;SDS011;2995;-31.998;115.906;2023-07-09T10:27:36;7.60;;;6.90;;
5939;SDS011;2995;-31.998;115.906;2023-07-09T10:30:27;12.27;;;10.87;;
5939;SDS011;2995;-31.998;115.906;2023-07-09T10:33:09;23.80;;;20.23;;
5939;SDS011;2995;-31.998;115.906;2023-07-09T10:35:45;9.30;;;8.40;;
5939;SDS011;2995;-31.998;115.906;2023-07-09T10:38:27;5.73;;;3.47;;
5939;SDS011;2995;-31.998;115.906;2023-07-09T10:41:07;10.63;;;8.67;;
5939;SDS011;2995;-31.998;115.906;2023-07-09T10:43:43;13.17;;;11.23;;
5939;SDS011;2995;-31.998;115.906;2023-07-09T10:46:17;7.90;;;5.23;;
5939;SDS011;2995;-31.998;115.906;2023-07-09T10:48:51;6.73;;;2.93;;
5939;SDS011;2995;-31.998;115.906;2023-07-09T10:51:26;3.00;;;2.53;;
5939;SDS011;2995;-31.998;115.906;2023-07-09T10:54:02;6.73;;;4.60;;
5939;SDS011;2995;-31.998;115.906;2023-07-09T10:56:40;5.37;;;4.93;;
5939;SDS011;2995;-31.998;115.906;2023-07-09T10:59:14;4.83;;;4.33;;
5939;SDS011;2995;-31.998;115.906;2023-07-09T11:01:56;5.20;;;4.70;;
5939;SDS011;2995;-31.998;115.906;2023-07-09T11:04:37;5.13;;;4.30;;
5939;SDS011;2995;-31.998;115.906;2023-07-09T11:07:18;6.23;;;4.73;;
5939;SDS011;2995;-31.998;115.906;2023-07-09T11:09:55;6.83;;;3.93;;
5939;SDS011;2995;-31.998;115.906;2023-07-09T11:12:31;4.53;;;3.33;;
5939;SDS011;2995;-31.998;115.906;2023-07-09T11:15:06;3.30;;;1.90;;
5939;SDS011;2995;-31.998;115.906;2023-07-09T11:17:43;6.00;;;3.20;;
5939;SDS011;2995;-31.998;115.906;2023-07-09T11:20:19;3.80;;;2.73;;
5939;SDS011;2995;-31.998;115.906;2023-07-09T11:23:00;4.40;;;1.90;;
5939;SDS011;2995;-31.998;115.906;2023-07-09T11:25:40;3.43;;;1.77;;
5939;SDS011;2995;-31.998;115.906;2023-07-09T11:28:13;3.83;;;2.47;;
5939;SDS011;2995;-31.998;115.906;2023-07-09T11:30:49;2.50;;;2.27;;
5939;SDS011;2995;-31.998;115.906;2023-07-09T11:33:26;1.93;;;1.73;;
5939;SDS011;2995;-31.998;115.906;2023-07-09T11:36:06;2.33;;;1.63;;
5939;SDS011;2995;-31.998;115.906;2023-07-09T11:38:44;3.87;;;2.00;;
5939;SDS011;2995;-31.998;115.906;2023-07-09T11:41:24;2.60;;;2.33;;
5939;SDS011;2995;-31.998;115.906;2023-07-09T11:44:03;4.30;;;2.30;;
5939;SDS011;2995;-31.998;115.906;2023-07-09T11:46:44;10.53;;;2.10;;
5939;SDS011;2995;-31.998;115.906;2023-07-09T11:49:31;2.10;;;1.67;;
5939;SDS011;2995;-31.998;115.906;2023-07-09T11:52:07;4.63;;;2.27;;
5939;SDS011;2995;-31.998;115.906;2023-07-09T11:54:41;4.23;;;1.73;;
5939;SDS011;2995;-31.998;115.906;2023-07-09T11:57:12;7.17;;;1.43;;
5939;SDS011;2995;-31.998;115.906;2023-07-09T11:59:44;3.50;;;1.90;;
5939;SDS011;2995;-31.998;115.906;2023-07-09T12:02:16;2.97;;;1.60;;
5939;SDS011;2995;-31.998;115.906;2023-07-09T12:04:49;2.50;;;1.57;;
5939;SDS011;2995;-31.998;115.906;2023-07-09T12:07:22;6.10;;;1.60;;
5939;SDS011;2995;-31.998;115.906;2023-07-09T12:09:56;6.57;;;1.87;;
5939;SDS011;2995;-31.998;115.906;2023-07-09T12:12:27;3.10;;;1.67;;
5939;SDS011;2995;-31.998;115.906;2023-07-09T12:14:58;2.10;;;1.53;;
5939;SDS011;2995;-31.998;115.906;2023-07-09T12:17:34;3.27;;;2.10;;
5939;SDS011;2995;-31.998;115.906;2023-07-09T12:20:05;2.30;;;2.10;;
5939;SDS011;2995;-31.998;115.906;2023-07-09T12:22:37;3.03;;;2.23;;
5939;SDS011;2995;-31.998;115.906;2023-07-09T12:25:17;7.10;;;3.50;;
5939;SDS011;2995;-31.998;115.906;2023-07-09T12:27:51;3.67;;;2.87;;
5939;SDS011;2995;-31.998;115.906;2023-07-09T12:30:22;2.60;;;2.07;;
5939;SDS011;2995;-31.998;115.906;2023-07-09T12:32:53;4.33;;;2.37;;
5939;SDS011;2995;-31.998;115.906;2023-07-09T12:35:26;3.30;;;2.63;;
5939;SDS011;2995;-31.998;115.906;2023-07-09T12:37:59;3.00;;;2.10;;
5939;SDS011;2995;-31.998;115.906;2023-07-09T12:40:32;3.23;;;2.60;;
5939;SDS011;2995;-31.998;115.906;2023-07-09T12:43:03;3.57;;;2.50;;
5939;SDS011;2995;-31.998;115.906;2023-07-09T12:45:35;3.20;;;2.30;;
5939;SDS011;2995;-31.998;115.906;2023-07-09T12:48:07;6.33;;;2.40;;
5939;SDS011;2995;-31.998;115.906;2023-07-09T12:50:41;3.40;;;2.37;;
5939;SDS011;2995;-31.998;115.906;2023-07-09T12:53:19;3.40;;;2.63;;
5939;SDS011;2995;-31.998;115.906;2023-07-09T12:55:54;5.20;;;2.17;;
5939;SDS011;2995;-31.998;115.906;2023-07-09T12:58:28;2.83;;;2.40;;
5939;SDS011;2995;-31.998;115.906;2023-07-09T13:01:04;5.93;;;2.87;;
5939;SDS011;2995;-31.998;115.906;2023-07-09T13:03:36;7.33;;;3.40;;
5939;SDS011;2995;-31.998;115.906;2023-07-09T13:06:23;4.20;;;3.20;;
5939;SDS011;2995;-31.998;115.906;2023-07-09T13:08:57;4.27;;;2.70;;
5939;SDS011;2995;-31.998;115.906;2023-07-09T13:11:34;4.23;;;2.83;;
5939;SDS011;2995;-31.998;115.906;2023-07-09T13:14:06;3.90;;;2.47;;
5939;SDS011;2995;-31.998;115.906;2023-07-09T13:16:45;8.20;;;3.07;;
5939;SDS011;2995;-31.998;115.906;2023-07-09T13:19:16;7.67;;;2.97;;
5939;SDS011;2995;-31.998;115.906;2023-07-09T13:21:48;3.10;;;2.30;;
5939;SDS011;2995;-31.998;115.906;2023-07-09T13:24:22;6.27;;;2.80;;
5939;SDS011;2995;-31.998;115.906;2023-07-09T13:26:57;4.53;;;2.57;;
5939;SDS011;2995;-31.998;115.906;2023-07-09T13:29:30;11.60;;;3.13;;
5939;SDS011;2995;-31.998;115.906;2023-07-09T13:32:04;5.10;;;3.00;;
5939;SDS011;2995;-31.998;115.906;2023-07-09T13:34:39;5.00;;;2.20;;
5939;SDS011;2995;-31.998;115.906;2023-07-09T13:37:11;4.17;;;2.70;;
5939;SDS011;2995;-31.998;115.906;2023-07-09T13:39:44;3.80;;;2.10;;
5939;SDS011;2995;-31.998;115.906;2023-07-09T13:42:17;4.07;;;2.10;;
5939;SDS011;2995;-31.998;115.906;2023-07-09T13:44:49;2.73;;;2.13;;
5939;SDS011;2995;-31.998;115.906;2023-07-09T13:47:21;3.23;;;2.10;;
5939;SDS011;2995;-31.998;115.906;2023-07-09T13:49:52;3.50;;;2.27;;
5939;SDS011;2995;-31.998;115.906;2023-07-09T13:52:24;1.90;;;1.70;;
5939;SDS011;2995;-31.998;115.906;2023-07-09T13:54:55;2.60;;;1.77;;
5939;SDS011;2995;-31.998;115.906;2023-07-09T13:57:28;2.53;;;1.63;;
5939;SDS011;2995;-31.998;115.906;2023-07-09T14:00:00;5.00;;;2.40;;
5939;SDS011;2995;-31.998;115.906;2023-07-09T14:02:32;3.40;;;2.03;;
5939;SDS011;2995;-31.998;115.906;2023-07-09T14:05:04;1.70;;;1.60;;
5939;SDS011;2995;-31.998;115.906;2023-07-09T14:07:38;2.07;;;1.40;;
5939;SDS011;2995;-31.998;115.906;2023-07-09T14:10:11;4.37;;;1.70;;
5939;SDS011;2995;-31.998;115.906;2023-07-09T14:12:47;5.07;;;1.80;;
5939;SDS011;2995;-31.998;115.906;2023-07-09T14:15:19;5.40;;;1.80;;
5939;SDS011;2995;-31.998;115.906;2023-07-09T14:17:51;3.70;;;1.63;;
5939;SDS011;2995;-31.998;115.906;2023-07-09T14:20:23;2.90;;;1.70;;
5939;SDS011;2995;-31.998;115.906;2023-07-09T14:22:55;2.33;;;1.77;;
5939;SDS011;2995;-31.998;115.906;2023-07-09T14:25:26;3.00;;;1.53;;
5939;SDS011;2995;-31.998;115.906;2023-07-09T14:27:59;2.77;;;1.73;;
5939;SDS011;2995;-31.998;115.906;2023-07-09T14:30:34;1.90;;;1.70;;
5939;SDS011;2995;-31.998;115.906;2023-07-09T14:33:08;3.90;;;2.00;;
5939;SDS011;2995;-31.998;115.906;2023-07-09T14:35:43;4.03;;;2.53;;
5939;SDS011;2995;-31.998;115.906;2023-07-09T14:38:15;4.30;;;1.80;;
5939;SDS011;2995;-31.998;115.906;2023-07-09T14:40:50;4.83;;;1.80;;
5939;SDS011;2995;-31.998;115.906;2023-07-09T14:43:25;4.33;;;1.53;;
5939;SDS011;2995;-31.998;115.906;2023-07-09T14:45:57;2.33;;;1.70;;
5939;SDS011;2995;-31.998;115.906;2023-07-09T14:48:28;4.40;;;1.63;;
5939;SDS011;2995;-31.998;115.906;2023-07-09T14:51:00;5.20;;;1.37;;
5939;SDS011;2995;-31.998;115.906;2023-07-09T14:53:36;2.53;;;1.47;;
5939;SDS011;2995;-31.998;115.906;2023-07-09T14:56:08;2.27;;;1.60;;
5939;SDS011;2995;-31.998;115.906;2023-07-09T14:58:43;3.23;;;1.60;;
5939;SDS011;2995;-31.998;115.906;2023-07-09T15:01:15;2.60;;;1.80;;
5939;SDS011;2995;-31.998;115.906;2023-07-09T15:03:47;3.90;;;1.90;;
5939;SDS011;2995;-31.998;115.906;2023-07-09T15:06:18;2.80;;;1.80;;
5939;SDS011;2995;-31.998;115.906;2023-07-09T15:08:49;3.03;;;1.97;;